Woodford, Virginia
Current Conditions -  °F | °C
As of 11:55 AM on Wednesday 22 Oct 2014 (Local Time) from KEZF Reporting Station
Light Rain Light Rain  
Wind Chill: 56°   Ceiling: 3400
Heat Index: 56°   Visibility: 10mi
Dew Point: 55°   Wind: 8mph
Humidity: 95%   Direction: 320°NW
Pressure: 29.93"   Gusts: 20mph
Location:  38.11°N, 77.44°W
Report Text: KEZF 221555Z AUTO 32007G17KT 10SM -RA BKN034 OVC041 13/13 A2993 RMK AO2 P0001 T01330125
Loading
Personal Weather Stations






























Interactive Weather Map
Tropical Storm Tracking
New forecast layout! Learn more

10-Day Weather Forecast

Advertisements
Track Severe Weather on mobile